createdAt,value
2019-05-25T00:02:07.090Z,4.50
2019-05-25T00:04:36.232Z,4.03
2019-05-25T00:07:05.399Z,3.90
2019-05-25T00:09:34.467Z,3.90
2019-05-25T00:12:03.658Z,3.70
2019-05-25T00:14:32.754Z,4.03
2019-05-25T00:17:01.770Z,3.50
2019-05-25T00:19:30.787Z,3.90
2019-05-25T00:21:59.735Z,3.70
2019-05-25T00:24:28.762Z,3.40
2019-05-25T00:26:57.750Z,3.20
2019-05-25T00:29:26.815Z,3.67
2019-05-25T00:31:55.924Z,3.60
2019-05-25T00:34:25.008Z,3.43
2019-05-25T00:36:54.027Z,3.43
2019-05-25T00:39:23.009Z,2.80
2019-05-25T00:41:52.061Z,3.40
2019-05-25T00:44:21.139Z,3.17
2019-05-25T00:47:09.313Z,3.33
2019-05-25T00:49:38.407Z,3.20
2019-05-25T00:52:07.502Z,3.87
2019-05-25T00:54:36.559Z,2.87
2019-05-25T00:57:06.750Z,3.23
2019-05-25T00:59:35.792Z,3.60
2019-05-25T01:02:04.906Z,3.17
2019-05-25T01:04:34.035Z,2.90
2019-05-25T01:07:03.030Z,2.97
2019-05-25T01:09:32.033Z,2.80
2019-05-25T01:12:01.542Z,2.80
2019-05-25T01:14:30.622Z,3.10
2019-05-25T01:16:59.814Z,3.10
2019-05-25T01:19:28.889Z,3.10
2019-05-25T01:21:57.944Z,2.77
2019-05-25T01:24:42.886Z,2.60
2019-05-25T01:26:57.747Z,3.20
2019-05-25T01:29:26.819Z,3.03
2019-05-25T01:31:55.880Z,2.70
2019-05-25T01:34:24.891Z,2.50
2019-05-25T01:36:53.998Z,2.50
2019-05-25T01:39:23.154Z,2.50
2019-05-25T01:41:52.172Z,2.93
2019-05-25T01:44:21.254Z,2.67
2019-05-25T01:46:50.435Z,2.60
2019-05-25T01:49:19.568Z,3.23
2019-05-25T01:51:48.722Z,2.80
2019-05-25T01:54:18.036Z,3.50
2019-05-25T01:56:47.234Z,2.77
2019-05-25T01:59:16.319Z,3.50
2019-05-25T02:01:52.047Z,3.10
2019-05-25T02:04:21.244Z,3.30
2019-05-25T02:06:50.291Z,3.10
2019-05-25T02:09:20.739Z,3.00
2019-05-25T02:11:49.782Z,2.97
2019-05-25T02:14:18.885Z,3.07
2019-05-25T02:16:47.977Z,2.83
2019-05-25T02:19:17.056Z,3.07
2019-05-25T02:21:46.089Z,3.03
2019-05-25T02:24:15.150Z,3.10
2019-05-25T02:26:44.296Z,2.87
2019-05-25T02:29:13.385Z,3.27
2019-05-25T02:31:42.464Z,2.20
2019-05-25T02:34:11.596Z,2.90
2019-05-25T02:36:40.678Z,3.13
2019-05-25T02:39:09.838Z,3.53
2019-05-25T02:41:38.868Z,3.90
2019-05-25T02:44:07.960Z,4.57
2019-05-25T02:46:37.014Z,4.70
2019-05-25T02:49:06.143Z,4.90
2019-05-25T02:51:35.211Z,5.10
2019-05-25T02:54:04.302Z,5.23
2019-05-25T02:56:33.418Z,5.07
2019-05-25T02:59:02.541Z,6.40
2019-05-25T03:01:31.579Z,6.90
2019-05-25T03:04:00.588Z,7.07
2019-05-25T03:06:29.606Z,6.67
2019-05-25T03:08:58.677Z,6.50
2019-05-25T03:11:29.547Z,7.17
2019-05-25T03:13:59.118Z,7.33
2019-05-25T03:16:28.130Z,6.70
2019-05-25T03:18:57.176Z,6.10
2019-05-25T03:21:26.258Z,7.07
2019-05-25T03:23:55.353Z,7.30
2019-05-25T03:26:24.368Z,7.27
2019-05-25T03:28:53.522Z,6.90
2019-05-25T03:31:22.545Z,7.47
2019-05-25T03:33:51.599Z,7.47
2019-05-25T03:36:20.634Z,7.43
2019-05-25T03:38:49.639Z,7.53
2019-05-25T03:41:18.697Z,7.27
2019-05-25T03:43:47.795Z,7.80
2019-05-25T03:46:16.850Z,6.70
2019-05-25T03:48:48.864Z,6.97
2019-05-25T03:51:17.921Z,7.27
2019-05-25T03:53:46.943Z,7.27
2019-05-25T03:56:15.970Z,7.00
2019-05-25T03:58:45.774Z,6.17
2019-05-25T04:01:14.772Z,6.83
2019-05-25T04:03:43.797Z,6.63
2019-05-25T04:06:12.943Z,7.00
2019-05-25T04:08:41.988Z,6.97
2019-05-25T04:11:11.000Z,6.80
2019-05-25T04:13:40.096Z,6.77
2019-05-25T04:16:09.255Z,6.40
2019-05-25T04:18:38.370Z,6.73
2019-05-25T04:21:07.430Z,6.07
2019-05-25T04:23:36.430Z,5.97
2019-05-25T04:26:20.940Z,6.50
2019-05-25T04:28:37.183Z,5.80
2019-05-25T04:31:08.086Z,5.60
2019-05-25T04:33:37.142Z,6.00
2019-05-25T04:36:06.123Z,6.27
2019-05-25T04:38:35.197Z,5.37
2019-05-25T04:41:04.354Z,5.40
2019-05-25T04:43:33.495Z,6.00
2019-05-25T04:46:02.554Z,5.57
2019-05-25T04:48:31.672Z,5.30
2019-05-25T04:51:00.735Z,4.90
2019-05-25T04:53:29.822Z,4.77
2019-05-25T04:55:58.887Z,5.07
2019-05-25T04:58:28.041Z,5.13
2019-05-25T05:00:57.117Z,4.60
2019-05-25T05:03:26.246Z,4.90
2019-05-25T05:05:55.326Z,4.33
2019-05-25T05:08:24.442Z,4.23
2019-05-25T05:10:53.545Z,3.90
2019-05-25T05:13:22.631Z,3.80
2019-05-25T05:15:51.737Z,3.77
2019-05-25T05:18:20.930Z,3.70
2019-05-25T05:20:49.946Z,3.80
2019-05-25T05:23:19.084Z,3.43
2019-05-25T05:25:48.138Z,3.80
2019-05-25T05:28:17.170Z,3.63
2019-05-25T05:30:46.181Z,3.67
2019-05-25T05:33:15.219Z,3.63
2019-05-25T05:35:44.253Z,3.80
2019-05-25T05:38:13.759Z,3.57
2019-05-25T05:40:42.753Z,3.80
2019-05-25T05:43:14.519Z,3.60
2019-05-25T05:45:43.633Z,3.70
2019-05-25T05:48:13.375Z,3.70
2019-05-25T05:50:42.813Z,3.07
2019-05-25T05:53:11.844Z,3.27
2019-05-25T05:55:40.995Z,3.00
2019-05-25T05:58:10.009Z,3.30
2019-05-25T06:00:39.138Z,3.00
2019-05-25T06:03:08.314Z,2.90
2019-05-25T06:05:37.804Z,2.67
2019-05-25T06:08:16.469Z,2.70
2019-05-25T06:10:45.510Z,2.60
2019-05-25T06:13:14.550Z,2.60
2019-05-25T06:15:43.609Z,2.20
2019-05-25T06:18:12.632Z,2.30
2019-05-25T06:20:41.653Z,2.40
2019-05-25T06:23:12.521Z,2.20
2019-05-25T06:25:41.439Z,2.10
2019-05-25T06:28:10.441Z,2.70
2019-05-25T06:30:39.530Z,2.70
2019-05-25T06:33:08.583Z,2.40
2019-05-25T06:35:37.623Z,2.80
2019-05-25T06:38:06.698Z,2.63
2019-05-25T06:40:35.724Z,2.50
2019-05-25T06:43:04.783Z,2.27
2019-05-25T06:45:33.883Z,2.73
2019-05-25T06:48:02.977Z,3.03
2019-05-25T06:50:32.019Z,2.50
2019-05-25T06:53:01.098Z,2.80
2019-05-25T06:55:30.234Z,2.80
2019-05-25T06:57:59.315Z,2.73
2019-05-25T07:00:28.368Z,2.90
2019-05-25T07:02:57.603Z,2.97
2019-05-25T07:05:26.636Z,2.53
2019-05-25T07:07:55.825Z,2.63
2019-05-25T07:10:24.874Z,3.13
2019-05-25T07:12:53.872Z,2.73
2019-05-25T07:15:22.918Z,3.10
2019-05-25T07:17:51.901Z,3.20
2019-05-25T07:20:20.920Z,3.00
2019-05-25T07:22:49.987Z,3.27
2019-05-25T07:25:20.248Z,3.17
2019-05-25T07:27:58.642Z,2.90
2019-05-25T07:30:20.403Z,2.93
2019-05-25T07:32:49.447Z,2.83
2019-05-25T07:35:18.416Z,3.10
2019-05-25T07:37:47.455Z,2.67
2019-05-25T07:40:16.528Z,2.43
2019-05-25T07:42:45.634Z,2.80
2019-05-25T07:45:14.702Z,3.00
2019-05-25T07:47:43.724Z,3.40
2019-05-25T07:50:12.741Z,3.17
2019-05-25T07:52:41.733Z,3.17
2019-05-25T07:55:10.817Z,2.77
2019-05-25T07:57:39.860Z,3.23
2019-05-25T08:00:08.930Z,3.20
2019-05-25T08:02:38.069Z,3.83
2019-05-25T08:05:07.168Z,3.27
2019-05-25T08:07:36.193Z,3.17
2019-05-25T08:10:05.565Z,3.67
2019-05-25T08:12:34.636Z,3.03
2019-05-25T08:15:03.731Z,3.03
2019-05-25T08:17:32.783Z,2.40
2019-05-25T08:20:01.868Z,2.67
2019-05-25T08:22:30.923Z,2.97
2019-05-25T08:25:00.054Z,2.50
2019-05-25T08:27:29.227Z,2.37
2019-05-25T08:29:58.253Z,2.33
2019-05-25T08:32:27.248Z,2.67
2019-05-25T08:34:56.276Z,2.77
2019-05-25T08:37:25.310Z,2.10
2019-05-25T08:39:54.734Z,2.20
2019-05-25T08:42:23.740Z,2.40
2019-05-25T08:44:55.533Z,2.20
2019-05-25T08:47:24.534Z,2.07
2019-05-25T08:49:58.273Z,2.47
2019-05-25T08:52:27.758Z,2.93
2019-05-25T08:54:56.916Z,2.40
2019-05-25T08:57:25.918Z,2.40
2019-05-25T08:59:54.991Z,2.43
2019-05-25T09:02:24.058Z,2.60
2019-05-25T09:04:53.050Z,2.47
2019-05-25T09:07:22.146Z,2.40
2019-05-25T09:09:55.617Z,2.60
2019-05-25T09:12:24.684Z,2.30
2019-05-25T09:14:53.725Z,2.57
2019-05-25T09:17:22.769Z,2.60
2019-05-25T09:19:53.003Z,2.60
2019-05-25T09:22:22.046Z,2.33
2019-05-25T09:24:51.068Z,2.83
2019-05-25T09:27:20.097Z,2.47
2019-05-25T09:29:49.374Z,3.10
2019-05-25T09:32:18.401Z,2.40
2019-05-25T09:34:47.462Z,2.90
2019-05-25T09:37:16.508Z,3.03
2019-05-25T09:39:45.512Z,3.00
2019-05-25T09:42:14.530Z,3.03
2019-05-25T09:44:43.602Z,3.10
2019-05-25T09:47:12.731Z,2.50
2019-05-25T09:49:41.762Z,2.63
2019-05-25T09:52:10.919Z,3.20
2019-05-25T09:54:39.937Z,2.80
2019-05-25T09:57:09.026Z,3.07
2019-05-25T09:59:38.153Z,3.07
2019-05-25T10:02:07.225Z,2.83
2019-05-25T10:04:36.393Z,2.97
2019-05-25T10:07:05.427Z,3.10
2019-05-25T10:09:34.482Z,2.50
2019-05-25T10:12:03.561Z,2.70
2019-05-25T10:14:32.673Z,2.67
2019-05-25T10:17:01.690Z,2.77
2019-05-25T10:19:30.750Z,2.40
2019-05-25T10:21:59.879Z,2.37
2019-05-25T10:24:28.873Z,2.63
2019-05-25T10:26:57.899Z,5.87
2019-05-25T10:29:36.589Z,3.20
2019-05-25T10:31:57.754Z,2.60
2019-05-25T10:34:26.886Z,2.23
2019-05-25T10:36:56.018Z,2.27
2019-05-25T10:39:25.065Z,2.70
2019-05-25T10:41:54.068Z,2.50
2019-05-25T10:44:23.235Z,2.07
2019-05-25T10:46:52.336Z,2.47
2019-05-25T10:49:21.383Z,2.50
2019-05-25T10:51:50.570Z,2.43
2019-05-25T10:54:19.628Z,2.67
2019-05-25T10:56:48.664Z,2.73
2019-05-25T10:59:17.697Z,2.17
2019-05-25T11:01:46.819Z,3.70
2019-05-25T11:04:15.928Z,4.27
2019-05-25T11:06:45.139Z,3.20
2019-05-25T11:09:14.235Z,3.47
2019-05-25T11:11:43.343Z,3.87
2019-05-25T11:14:12.387Z,4.00
2019-05-25T11:16:41.559Z,3.70
2019-05-25T11:19:10.741Z,3.73
2019-05-25T11:21:39.822Z,3.50
2019-05-25T11:24:08.917Z,3.60
2019-05-25T11:26:37.992Z,3.30
2019-05-25T11:29:07.087Z,3.53
2019-05-25T11:31:36.379Z,3.70
2019-05-25T11:34:07.778Z,3.60
2019-05-25T11:36:36.930Z,2.90
2019-05-25T11:39:06.970Z,2.60
2019-05-25T11:41:40.355Z,3.27
2019-05-25T11:44:12.652Z,2.80
2019-05-25T11:46:41.666Z,2.50
2019-05-25T11:49:22.195Z,3.53
2019-05-25T11:51:42.589Z,3.27
2019-05-25T11:54:11.650Z,3.10
2019-05-25T11:56:40.660Z,3.77
2019-05-25T11:59:09.679Z,3.27
2019-05-25T12:01:38.839Z,3.70
2019-05-25T12:04:07.916Z,4.07
2019-05-25T12:06:37.009Z,3.20
2019-05-25T12:09:07.434Z,3.33
2019-05-25T12:11:36.610Z,3.10
2019-05-25T12:14:05.627Z,2.77
2019-05-25T12:16:34.680Z,2.50
2019-05-25T12:19:03.712Z,3.10
2019-05-25T12:21:32.778Z,3.17
2019-05-25T12:24:01.840Z,2.63
2019-05-25T12:26:31.046Z,3.60
2019-05-25T12:29:00.130Z,2.90
2019-05-25T12:31:29.224Z,2.37
2019-05-25T12:33:58.260Z,2.60
2019-05-25T12:36:27.449Z,3.43
2019-05-25T12:38:56.609Z,2.27
2019-05-25T12:41:25.723Z,2.40
2019-05-25T12:43:54.799Z,2.40
2019-05-25T12:46:23.860Z,2.17
2019-05-25T12:48:52.932Z,2.27
2019-05-25T12:51:22.087Z,2.57
2019-05-25T12:53:51.115Z,2.20
2019-05-25T12:56:20.102Z,2.50
2019-05-25T12:58:50.230Z,1.87
2019-05-25T13:01:19.469Z,2.10
2019-05-25T13:03:48.532Z,2.07
2019-05-25T13:06:18.307Z,1.97
2019-05-25T13:08:47.571Z,2.57
2019-05-25T13:11:16.603Z,2.70
2019-05-25T13:13:45.763Z,2.70
2019-05-25T13:16:14.796Z,2.30
2019-05-25T13:18:43.943Z,2.17
2019-05-25T13:21:13.011Z,2.03
2019-05-25T13:23:42.071Z,1.97
2019-05-25T13:26:11.134Z,2.00
2019-05-25T13:28:40.202Z,1.87
2019-05-25T13:31:12.073Z,2.10
2019-05-25T13:33:39.982Z,2.23
2019-05-25T13:36:09.050Z,2.20
2019-05-25T13:38:38.078Z,1.87
2019-05-25T13:41:07.209Z,2.00
2019-05-25T13:43:36.306Z,2.03
2019-05-25T13:46:05.330Z,1.90
2019-05-25T13:48:34.383Z,1.70
2019-05-25T13:51:03.523Z,1.70
2019-05-25T13:53:33.126Z,1.53
2019-05-25T13:56:02.260Z,1.87
2019-05-25T13:58:31.293Z,1.70
2019-05-25T14:01:00.435Z,1.53
2019-05-25T14:03:29.511Z,1.80
2019-05-25T14:05:58.553Z,1.93
2019-05-25T14:08:27.628Z,1.83
2019-05-25T14:10:56.708Z,2.07
2019-05-25T14:13:25.726Z,1.50
2019-05-25T14:16:06.510Z,1.90
2019-05-25T14:18:25.452Z,1.77
2019-05-25T14:20:54.497Z,1.83
2019-05-25T14:23:23.523Z,1.90
2019-05-25T14:25:52.587Z,1.87
2019-05-25T14:28:21.608Z,1.90
2019-05-25T14:30:50.647Z,2.47
2019-05-25T14:33:19.689Z,1.77
2019-05-25T14:35:48.698Z,1.70
2019-05-25T14:38:17.722Z,1.90
2019-05-25T14:40:46.780Z,2.30
2019-05-25T14:43:15.819Z,1.73
2019-05-25T14:45:44.887Z,1.73
2019-05-25T14:48:14.016Z,1.70
2019-05-25T14:50:43.178Z,1.83
2019-05-25T14:53:12.396Z,2.17
2019-05-25T14:55:41.464Z,2.03
2019-05-25T14:58:12.825Z,1.50
2019-05-25T15:00:41.372Z,2.10
2019-05-25T15:03:10.447Z,1.80
2019-05-25T15:05:39.495Z,1.90
2019-05-25T15:08:08.529Z,1.50
2019-05-25T15:10:37.554Z,1.47
2019-05-25T15:13:06.589Z,1.50
2019-05-25T15:15:35.652Z,1.60
2019-05-25T15:18:04.730Z,1.90
2019-05-25T15:20:33.875Z,1.50
2019-05-25T15:23:02.905Z,1.50
2019-05-25T15:25:31.966Z,1.57
2019-05-25T15:28:01.035Z,1.70
2019-05-25T15:30:30.187Z,1.20
2019-05-25T15:32:59.286Z,1.27
2019-05-25T15:35:28.348Z,1.80
2019-05-25T15:37:57.425Z,1.90
2019-05-25T15:40:26.458Z,1.90
2019-05-25T15:42:55.583Z,1.40
2019-05-25T15:45:24.665Z,1.53
2019-05-25T15:47:53.706Z,1.80
2019-05-25T15:50:22.851Z,1.50
2019-05-25T15:52:51.925Z,1.50
2019-05-25T15:55:21.039Z,1.70
2019-05-25T15:57:50.095Z,1.70
2019-05-25T16:00:19.353Z,1.70
2019-05-25T16:02:48.514Z,1.20
2019-05-25T16:05:18.440Z,1.77
2019-05-25T16:08:06.283Z,5.50
2019-05-25T16:10:32.547Z,2.90
2019-05-25T16:13:01.759Z,3.23
2019-05-25T16:15:30.849Z,1.60
2019-05-25T16:18:00.076Z,1.93
2019-05-25T16:20:29.131Z,1.80
2019-05-25T16:22:58.234Z,2.00
2019-05-25T16:25:27.346Z,1.60
2019-05-25T16:27:56.396Z,1.97
2019-05-25T16:30:25.503Z,1.83
2019-05-25T16:33:12.948Z,2.03
2019-05-25T16:35:25.423Z,1.87
2019-05-25T16:37:54.670Z,2.60
2019-05-25T16:40:23.711Z,1.90
2019-05-25T16:42:52.924Z,1.80
2019-05-25T16:45:22.064Z,1.70
2019-05-25T16:47:51.161Z,1.30
2019-05-25T16:50:20.254Z,1.93
2019-05-25T16:52:49.373Z,2.00
2019-05-25T16:55:18.485Z,2.10
2019-05-25T16:57:50.329Z,1.90
2019-05-25T17:00:26.368Z,1.67
2019-05-25T17:02:55.902Z,1.60
2019-05-25T17:05:25.062Z,1.60
2019-05-25T17:07:54.145Z,1.60
2019-05-25T17:10:24.462Z,1.50
2019-05-25T17:12:53.613Z,1.40
2019-05-25T17:15:22.704Z,1.50
2019-05-25T17:17:51.874Z,1.60
2019-05-25T17:20:20.931Z,1.37
2019-05-25T17:22:50.042Z,1.40
2019-05-25T17:25:19.184Z,1.20
2019-05-25T17:27:48.326Z,1.20
2019-05-25T17:30:17.619Z,1.27
2019-05-25T17:32:46.706Z,1.40
2019-05-25T17:35:15.763Z,1.00
2019-05-25T17:37:44.779Z,1.00
2019-05-25T17:40:15.854Z,1.00
2019-05-25T17:42:46.900Z,1.40
2019-05-25T17:45:16.009Z,1.27
2019-05-25T17:47:45.124Z,1.40
2019-05-25T17:50:14.188Z,1.47
2019-05-25T17:52:43.254Z,1.00
2019-05-25T17:55:12.349Z,1.00
2019-05-25T17:57:41.368Z,0.90
2019-05-25T18:00:10.671Z,0.97
2019-05-25T18:02:39.701Z,1.30
2019-05-25T18:05:10.319Z,1.10
2019-05-25T18:07:39.349Z,0.97
2019-05-25T18:10:08.326Z,1.10
2019-05-25T18:12:37.479Z,1.40
2019-05-25T18:15:06.597Z,1.20
2019-05-25T18:17:35.705Z,1.20
2019-05-25T18:20:05.243Z,1.40
2019-05-25T18:22:34.351Z,1.10
2019-05-25T18:25:03.506Z,1.40
2019-05-25T18:27:32.502Z,1.20
2019-05-25T18:30:01.657Z,1.20
2019-05-25T18:32:30.734Z,1.43
2019-05-25T18:34:59.844Z,2.10
2019-05-25T18:37:28.968Z,1.90
2019-05-25T18:39:58.073Z,1.57
2019-05-25T18:42:30.193Z,1.50
2019-05-25T18:44:57.938Z,1.40
2019-05-25T18:47:27.038Z,1.47
2019-05-25T18:49:56.094Z,1.40
2019-05-25T18:52:25.122Z,1.10
2019-05-25T18:54:54.225Z,1.37
2019-05-25T18:57:23.515Z,1.40
2019-05-25T18:59:52.530Z,1.50
2019-05-25T19:02:21.607Z,1.30
2019-05-25T19:04:59.614Z,1.40
2019-05-25T19:07:29.797Z,1.10
2019-05-25T19:10:01.657Z,1.87
2019-05-25T19:12:30.706Z,1.10
2019-05-25T19:14:59.865Z,1.20
2019-05-25T19:17:30.042Z,1.20
2019-05-25T19:19:59.121Z,1.40
2019-05-25T19:22:28.274Z,1.27
2019-05-25T19:24:57.335Z,1.17
2019-05-25T19:27:26.338Z,1.13
2019-05-25T19:29:55.323Z,1.80
2019-05-25T19:32:24.463Z,1.13
2019-05-25T19:34:59.474Z,1.93
2019-05-25T19:37:24.295Z,1.20
2019-05-25T19:39:53.309Z,1.27
2019-05-25T19:42:22.392Z,1.73
2019-05-25T19:44:51.408Z,1.33
2019-05-25T19:47:20.465Z,1.60
2019-05-25T19:49:49.529Z,1.50
2019-05-25T19:52:18.768Z,1.47
2019-05-25T19:54:47.782Z,1.50
2019-05-25T19:57:16.853Z,1.50
2019-05-25T19:59:46.115Z,1.63
2019-05-25T20:02:15.163Z,1.53
2019-05-25T20:04:44.253Z,1.80
2019-05-25T20:07:13.386Z,1.50
2019-05-25T20:09:42.456Z,2.10
2019-05-25T20:12:11.503Z,1.63
2019-05-25T20:14:40.518Z,1.37
2019-05-25T20:17:09.642Z,1.73
2019-05-25T20:19:38.699Z,1.70
2019-05-25T20:22:09.257Z,1.70
2019-05-25T20:24:38.450Z,1.67
2019-05-25T20:27:09.389Z,1.90
2019-05-25T20:29:38.460Z,1.93
2019-05-25T20:32:07.492Z,2.00
2019-05-25T20:34:36.572Z,2.43
2019-05-25T20:37:05.657Z,2.10
2019-05-25T20:39:34.807Z,1.63
2019-05-25T20:42:03.860Z,1.73
2019-05-25T20:44:32.924Z,1.50
2019-05-25T20:47:02.029Z,1.60
2019-05-25T20:49:31.177Z,1.83
2019-05-25T20:52:00.243Z,2.00
2019-05-25T20:54:29.255Z,1.60
2019-05-25T20:56:58.219Z,2.37
2019-05-25T20:59:27.258Z,1.70
2019-05-25T21:01:56.303Z,2.10
2019-05-25T21:04:25.316Z,1.93
2019-05-25T21:06:54.337Z,1.87
2019-05-25T21:09:23.391Z,2.00
2019-05-25T21:11:55.805Z,1.90
2019-05-25T21:14:23.126Z,1.73
2019-05-25T21:16:52.199Z,2.40
2019-05-25T21:19:21.581Z,2.17
2019-05-25T21:21:50.785Z,1.93
2019-05-25T21:24:19.831Z,2.00
2019-05-25T21:26:48.920Z,2.03
2019-05-25T21:29:21.433Z,1.90
2019-05-25T21:31:51.815Z,1.77
2019-05-25T21:34:21.181Z,2.07
2019-05-25T21:36:50.791Z,1.97
2019-05-25T21:39:24.516Z,2.00
2019-05-25T21:41:53.551Z,2.30
2019-05-25T21:44:23.563Z,2.13
2019-05-25T21:46:53.468Z,2.47
2019-05-25T21:49:22.533Z,1.97
2019-05-25T21:51:52.899Z,2.50
2019-05-25T21:54:21.949Z,2.33
2019-05-25T21:56:51.144Z,2.27
2019-05-25T21:59:20.803Z,2.00
2019-05-25T22:01:49.859Z,2.33
2019-05-25T22:04:18.998Z,2.23
2019-05-25T22:06:48.107Z,3.10
2019-05-25T22:09:17.098Z,2.70
2019-05-25T22:11:46.194Z,2.40
2019-05-25T22:14:15.270Z,2.03
2019-05-25T22:16:44.439Z,2.67
2019-05-25T22:19:13.473Z,2.80
2019-05-25T22:21:45.935Z,2.90
2019-05-25T22:24:13.253Z,3.00
2019-05-25T22:26:42.283Z,3.07
2019-05-25T22:29:11.636Z,3.77
2019-05-25T22:31:40.953Z,3.67
2019-05-25T22:34:10.100Z,3.37
2019-05-25T22:36:41.091Z,4.00
2019-05-25T22:39:10.023Z,3.70
2019-05-25T22:41:39.115Z,3.97
2019-05-25T22:44:08.155Z,4.30
2019-05-25T22:46:37.227Z,4.47
2019-05-25T22:49:06.298Z,4.77
2019-05-25T22:51:35.327Z,4.60
2019-05-25T22:54:04.318Z,5.30
2019-05-25T22:56:33.329Z,5.10
2019-05-25T22:59:02.361Z,5.13
2019-05-25T23:01:31.451Z,5.17
2019-05-25T23:04:00.499Z,5.63
2019-05-25T23:06:29.496Z,5.47
2019-05-25T23:08:58.645Z,5.57
2019-05-25T23:11:27.690Z,5.20
2019-05-25T23:13:56.730Z,5.23
2019-05-25T23:16:26.372Z,6.43
2019-05-25T23:18:55.507Z,6.67
2019-05-25T23:21:24.561Z,6.17
2019-05-25T23:23:53.646Z,6.30
2019-05-25T23:26:22.705Z,7.17
2019-05-25T23:28:51.761Z,5.93
2019-05-25T23:31:20.809Z,5.93
2019-05-25T23:33:50.075Z,7.47
2019-05-25T23:36:19.097Z,6.87
2019-05-25T23:38:48.092Z,6.17
2019-05-25T23:41:17.311Z,7.83
2019-05-25T23:43:48.233Z,7.73
2019-05-25T23:46:17.263Z,6.80
2019-05-25T23:48:46.301Z,7.77
2019-05-25T23:51:15.287Z,8.40
2019-05-25T23:53:44.359Z,9.30
2019-05-25T23:56:13.429Z,8.20
2019-05-25T23:58:42.575Z,7.97
